createdAt,value
2022-12-06T00:01:56.998Z,11.20
2022-12-06T00:06:51.886Z,8.17
2022-12-06T00:11:44.216Z,6.50
2022-12-06T00:16:37.219Z,6.83
2022-12-06T00:21:39.585Z,8.23
2022-12-06T00:26:34.631Z,7.47
2022-12-06T00:31:29.102Z,7.50
2022-12-06T00:36:23.808Z,7.67
2022-12-06T00:41:24.676Z,6.97
2022-12-06T00:46:19.808Z,7.03
2022-12-06T00:51:12.736Z,5.73
2022-12-06T00:56:05.288Z,4.63
2022-12-06T01:01:14.315Z,4.20
2022-12-06T01:06:13.325Z,5.70
2022-12-06T01:11:07.194Z,4.23
2022-12-06T01:16:09.359Z,3.87
2022-12-06T01:21:09.942Z,3.40
2022-12-06T01:26:07.052Z,3.70
2022-12-06T01:30:59.349Z,3.67
2022-12-06T01:35:51.454Z,3.40
2022-12-06T01:40:46.829Z,4.40
2022-12-06T01:45:48.969Z,3.90
2022-12-06T01:50:42.889Z,3.20
2022-12-06T01:55:39.075Z,4.60
2022-12-06T02:00:31.163Z,5.13
2022-12-06T02:10:49.073Z,8.77
2022-12-06T02:15:55.295Z,5.20
2022-12-06T02:21:04.659Z,4.67
2022-12-06T02:26:21.425Z,4.47
2022-12-06T02:31:13.371Z,6.73
2022-12-06T02:36:17.510Z,7.83
2022-12-06T02:41:22.368Z,6.13
2022-12-06T02:46:17.412Z,6.93
2022-12-06T02:51:13.930Z,7.27
2022-12-06T02:56:06.298Z,6.40
2022-12-06T03:01:01.579Z,6.87
2022-12-06T03:06:02.487Z,6.63
2022-12-06T03:11:00.532Z,8.90
2022-12-06T03:16:07.211Z,6.30
2022-12-06T03:21:10.963Z,6.23
2022-12-06T03:26:05.231Z,6.23
2022-12-06T03:31:04.320Z,6.27
2022-12-06T03:35:58.389Z,7.50
2022-12-06T03:40:52.899Z,7.13
2022-12-06T03:45:58.069Z,6.20
2022-12-06T03:50:58.912Z,8.53
2022-12-06T03:55:50.933Z,8.93
2022-12-06T04:00:42.918Z,7.80
2022-12-06T04:05:34.844Z,6.07
2022-12-06T04:10:26.868Z,6.90
2022-12-06T04:15:20.532Z,8.33
2022-12-06T04:20:13.809Z,6.37
2022-12-06T04:25:06.168Z,7.50
2022-12-06T04:30:16.611Z,7.13
2022-12-06T04:35:27.042Z,7.10
2022-12-06T04:40:21.484Z,7.83
2022-12-06T04:45:13.451Z,7.50
2022-12-06T04:50:05.945Z,8.23
2022-12-06T04:54:57.928Z,7.60
2022-12-06T04:59:51.225Z,7.47
2022-12-06T05:04:43.302Z,9.47
2022-12-06T05:09:35.277Z,7.60
2022-12-06T05:14:27.212Z,6.30
2022-12-06T05:19:19.329Z,6.33
2022-12-06T05:24:11.611Z,6.87
2022-12-06T05:29:03.692Z,6.80
2022-12-06T05:33:55.585Z,5.83
2022-12-06T05:38:51.588Z,7.17
2022-12-06T05:43:44.076Z,8.97
2022-12-06T05:48:36.253Z,8.43
2022-12-06T05:53:28.255Z,6.70
2022-12-06T05:58:20.572Z,7.27
2022-12-06T06:03:12.650Z,9.33
2022-12-06T06:08:04.915Z,8.77
2022-12-06T06:12:56.960Z,8.40
2022-12-06T06:17:48.927Z,8.00
2022-12-06T06:22:42.360Z,7.33
2022-12-06T06:27:37.736Z,8.03
2022-12-06T06:32:29.708Z,8.67
2022-12-06T06:37:21.696Z,8.73
2022-12-06T06:42:13.712Z,8.33
2022-12-06T06:47:06.065Z,8.23
2022-12-06T06:51:58.038Z,8.00
2022-12-06T06:56:49.962Z,8.90
2022-12-06T07:01:42.004Z,7.93
2022-12-06T07:06:34.021Z,9.03
2022-12-06T07:11:26.043Z,10.13
2022-12-06T07:16:18.270Z,8.67
2022-12-06T07:21:13.410Z,9.13
2022-12-06T07:26:17.281Z,8.00
2022-12-06T07:31:15.761Z,9.97
2022-12-06T07:36:13.210Z,11.80
2022-12-06T07:41:28.622Z,10.33
2022-12-06T07:46:20.974Z,7.47
2022-12-06T07:51:13.075Z,10.13
2022-12-06T07:56:08.394Z,9.40
2022-12-06T08:01:02.253Z,11.13
2022-12-06T08:05:55.847Z,8.97
2022-12-06T08:10:48.138Z,10.30
2022-12-06T08:15:40.716Z,11.87
2022-12-06T08:20:33.204Z,10.83
2022-12-06T08:25:25.175Z,11.57
2022-12-06T08:30:17.459Z,11.80
2022-12-06T08:35:09.586Z,10.30
2022-12-06T08:40:01.707Z,10.43
2022-12-06T08:44:54.488Z,9.47
2022-12-06T08:49:46.517Z,9.57
2022-12-06T08:54:39.853Z,9.03
2022-12-06T08:59:31.892Z,10.47
2022-12-06T09:04:24.221Z,8.30
2022-12-06T09:09:18.122Z,8.33
2022-12-06T09:14:21.185Z,10.23
2022-12-06T09:19:14.754Z,9.53
2022-12-06T09:24:07.101Z,8.87
2022-12-06T09:29:00.138Z,9.30
2022-12-06T09:33:52.631Z,10.53
2022-12-06T09:38:47.096Z,10.80
2022-12-06T09:43:59.926Z,8.40
2022-12-06T09:49:16.416Z,14.30
2022-12-06T09:54:11.448Z,11.43
2022-12-06T09:59:28.832Z,10.10
2022-12-06T10:04:41.822Z,13.27
2022-12-06T10:09:46.953Z,9.87
2022-12-06T10:15:03.400Z,10.23
2022-12-06T10:20:05.909Z,9.50
2022-12-06T10:24:57.846Z,10.27
2022-12-06T10:29:59.740Z,8.33
2022-12-06T10:35:04.267Z,10.63
2022-12-06T10:40:18.833Z,13.60
2022-12-06T10:45:50.052Z,8.93
2022-12-06T10:50:43.842Z,8.47
2022-12-06T10:55:52.108Z,8.37
2022-12-06T11:00:49.928Z,10.63
2022-12-06T11:05:43.929Z,8.30
2022-12-06T11:10:36.404Z,10.50
2022-12-06T11:15:35.417Z,9.37
2022-12-06T11:20:34.191Z,10.33
2022-12-06T11:25:31.620Z,8.73
2022-12-06T11:30:23.676Z,8.30
2022-12-06T11:35:23.144Z,9.47
2022-12-06T11:40:28.852Z,8.37
2022-12-06T11:45:29.295Z,10.40
2022-12-06T11:50:22.262Z,10.23
2022-12-06T11:55:24.201Z,10.00
2022-12-06T12:00:21.708Z,11.60
2022-12-06T12:05:25.623Z,11.97
2022-12-06T12:10:38.292Z,10.90
2022-12-06T12:15:30.352Z,10.00
2022-12-06T12:20:31.862Z,11.37
2022-12-06T12:25:29.628Z,11.10
2022-12-06T12:30:29.157Z,11.73
2022-12-06T12:35:21.436Z,9.93
2022-12-06T12:40:42.600Z,10.53
2022-12-06T12:45:34.710Z,11.77
2022-12-06T12:50:28.941Z,8.67
2022-12-06T12:55:30.167Z,8.13
2022-12-06T13:00:35.253Z,9.13
2022-12-06T13:05:35.773Z,10.77
2022-12-06T13:10:34.997Z,8.30
2022-12-06T13:15:41.483Z,8.63
2022-12-06T13:20:35.750Z,9.27
2022-12-06T13:25:28.299Z,8.80
2022-12-06T13:30:25.237Z,8.83
2022-12-06T13:35:23.794Z,12.90
2022-12-06T13:40:37.625Z,9.20
2022-12-06T13:45:48.713Z,8.87
2022-12-06T13:50:40.742Z,9.87
2022-12-06T13:55:32.659Z,9.70
2022-12-06T14:00:47.687Z,9.77
2022-12-06T14:06:09.037Z,9.57
2022-12-06T14:11:10.658Z,10.07
2022-12-06T14:16:04.229Z,10.70
2022-12-06T14:20:57.916Z,11.93
2022-12-06T14:25:49.924Z,9.03
2022-12-06T14:30:43.999Z,8.73
2022-12-06T14:35:36.397Z,10.57
2022-12-06T14:45:41.926Z,10.57
2022-12-06T14:50:50.881Z,10.00
2022-12-06T14:55:56.367Z,9.10
2022-12-06T15:01:00.013Z,9.77
2022-12-06T15:06:09.698Z,8.73
2022-12-06T15:11:33.612Z,8.03
2022-12-06T15:16:25.644Z,8.27
2022-12-06T15:21:18.187Z,7.83
2022-12-06T15:26:13.336Z,7.97
2022-12-06T15:31:27.019Z,8.37
2022-12-06T15:36:27.808Z,7.60
2022-12-06T15:41:24.875Z,6.23
2022-12-06T15:46:25.170Z,6.13
2022-12-06T15:51:21.114Z,6.00
2022-12-06T15:56:15.011Z,10.60
2022-12-06T16:01:17.060Z,12.97
2022-12-06T16:06:14.273Z,7.80
2022-12-06T16:11:14.054Z,39.70
2022-12-06T16:16:06.915Z,10.43
2022-12-06T16:20:59.247Z,9.20
2022-12-06T16:25:51.310Z,10.43
2022-12-06T16:30:43.359Z,7.60
2022-12-06T16:35:35.587Z,7.10
2022-12-06T16:40:28.995Z,8.53
2022-12-06T16:45:21.167Z,7.20
2022-12-06T16:50:24.115Z,7.93
2022-12-06T16:55:16.394Z,7.07
2022-12-06T17:00:10.526Z,6.00
2022-12-06T17:05:06.964Z,5.20
2022-12-06T17:09:59.764Z,5.80
2022-12-06T17:14:52.150Z,5.90
2022-12-06T17:19:44.537Z,5.67
2022-12-06T17:24:37.006Z,5.17
2022-12-06T17:29:29.330Z,5.93
2022-12-06T17:34:25.879Z,4.87
2022-12-06T17:39:20.252Z,5.43
2022-12-06T17:44:12.905Z,3.67
2022-12-06T17:49:06.016Z,3.53
2022-12-06T17:53:58.150Z,3.33
2022-12-06T17:58:50.392Z,3.20
2022-12-06T18:03:42.681Z,3.60
2022-12-06T18:08:34.631Z,3.27
2022-12-06T18:13:29.283Z,5.80
2022-12-06T18:18:21.313Z,3.70
2022-12-06T18:23:13.960Z,4.07
2022-12-06T18:28:06.498Z,5.60
2022-12-06T18:33:02.365Z,3.00
2022-12-06T18:37:54.329Z,4.07
2022-12-06T18:42:46.295Z,2.60
2022-12-06T18:47:38.266Z,3.40
2022-12-06T18:52:30.304Z,3.00
2022-12-06T18:57:25.254Z,2.97
2022-12-06T19:02:19.703Z,2.80
2022-12-06T19:07:12.082Z,3.20
2022-12-06T19:12:04.970Z,3.43
2022-12-06T19:16:57.066Z,2.50
2022-12-06T19:21:50.520Z,2.10
2022-12-06T19:26:43.145Z,2.70
2022-12-06T19:31:35.770Z,2.43
2022-12-06T19:36:29.458Z,2.27
2022-12-06T19:41:21.626Z,2.57
2022-12-06T19:46:21.457Z,2.23
2022-12-06T19:51:13.644Z,2.57
2022-12-06T19:56:07.680Z,1.73
2022-12-06T20:00:59.917Z,1.70
2022-12-06T20:06:05.526Z,2.40
2022-12-06T20:11:02.721Z,1.90
2022-12-06T20:16:02.906Z,1.70
2022-12-06T20:20:55.179Z,1.33
2022-12-06T20:25:49.166Z,2.57
2022-12-06T20:30:41.318Z,2.57
2022-12-06T20:35:37.302Z,2.90
2022-12-06T20:40:31.621Z,2.23
2022-12-06T20:45:25.119Z,2.17
2022-12-06T20:50:17.157Z,2.40
2022-12-06T20:55:09.851Z,2.10
2022-12-06T21:00:07.096Z,2.50
2022-12-06T21:04:59.857Z,1.90
2022-12-06T21:09:51.904Z,2.20
2022-12-06T21:14:44.132Z,1.80
2022-12-06T21:19:36.050Z,1.83
2022-12-06T21:24:28.097Z,1.70
2022-12-06T21:29:29.712Z,2.23
2022-12-06T21:34:22.316Z,1.80
2022-12-06T21:39:14.840Z,3.03
2022-12-06T21:44:07.531Z,2.70
2022-12-06T21:49:00.584Z,3.67
2022-12-06T21:53:53.058Z,2.87
2022-12-06T21:58:45.800Z,2.87
2022-12-06T22:03:38.401Z,3.67
2022-12-06T22:08:30.371Z,4.40
2022-12-06T22:13:22.256Z,3.30
2022-12-06T22:18:14.155Z,4.60
2022-12-06T22:23:06.367Z,3.80
2022-12-06T22:27:58.334Z,5.47
2022-12-06T22:32:50.351Z,6.57
2022-12-06T22:37:42.570Z,5.60
2022-12-06T22:42:35.130Z,6.43
2022-12-06T22:47:27.103Z,8.70
2022-12-06T22:52:19.036Z,9.47
2022-12-06T22:57:10.986Z,10.67
2022-12-06T23:02:03.065Z,13.40
2022-12-06T23:06:55.113Z,15.70
2022-12-06T23:11:47.055Z,16.80
2022-12-06T23:16:39.249Z,17.30
2022-12-06T23:21:34.464Z,17.43
2022-12-06T23:26:32.715Z,16.43
2022-12-06T23:31:33.647Z,17.80
2022-12-06T23:36:28.421Z,13.33
2022-12-06T23:41:22.691Z,15.47
2022-12-06T23:46:21.949Z,14.57
2022-12-06T23:51:16.747Z,14.93
2022-12-06T23:56:11.621Z,16.63
